Amsden, Ohio
Current Conditions -  °F | °C
As of 9:53 AM on Monday 22 Dec 2014 (Local Time) from KFDY Reporting Station
Haze Haze  
Wind Chill: 24°   Ceiling: 4600
Heat Index: 30°   Visibility: 5mi
Dew Point: 25°   Wind: 6mph
Humidity: 82%   Direction: 120°ESE
Pressure: 30.04"   Gusts: NA
Location:  41.22°N, 83.33°W
Report Text: KFDY 221453Z AUTO 12005KT 5SM HZ OVC046 M01/M04 A3004 RMK AO2 SLP177 T10111039 58007
Loading
Personal Weather Stations






























Interactive Weather Map New forecast layout! Learn more

10-Day Weather Forecast

Advertisements
Track Severe Weather on mobile